Terminal Aerodrome Forecast
Issued by NWS

Home | Current Version | Previous Version | Text Only | Print | Product List | Glossary On
Versions: 1 2 3 4 5 6 7 8 9 10 11 12 13 14 15 16 17
000
FTUS44 KCRP 171140
TAFLRD
TAF
KLRD 171140Z 1712/1812 03003KT P6SM VCSH BKN015 OVC025
     FM171600 VRB04KT P6SM VCSH BKN030
      TEMPO 1720/1723 VRB15G30KT 5SM TSRA OVC025CB
     FM180100 02004KT 5SM BR VCSH OVC015=

USA.gov is the U.S. government's official web portal to all federal, state and local government web resources and services.